Time,TemperatureF,DewpointF,PressureIn,WindDirection,WindDirectionDegrees,WindSpeedMPH,WindSpeedGustMPH,Humidity,HourlyPrecipIn,Conditions,Clouds,dailyrainin,SoftwareType,DateUTC
2013-11-02 00:02:00,33.6,25.2,29.88,North,-999,0.0,2.2,71,0.00,,,-99.99,FreeWX-Wi 1.01,2013-11-02 05:02:00,
2013-11-02 00:12:00,33.8,25.3,29.85,North,-999,0.0,0.0,71,0.00,,,-99.99,FreeWX-Wi 1.01,2013-11-02 05:12:00,
2013-11-02 00:22:00,34.5,26.8,29.85,North,-999,0.0,2.2,73,0.00,,,-99.99,FreeWX-Wi 1.01,2013-11-02 05:22:00,
2013-11-02 00:32:00,35.1,27.3,29.88,North,-999,0.0,2.7,73,0.00,,,-99.99,FreeWX-Wi 1.01,2013-11-02 05:32:00,
2013-11-02 00:42:00,35.4,28.0,29.88,North,-999,0.0,3.6,74,0.00,,,-99.99,FreeWX-Wi 1.01,2013-11-02 05:42:00,
2013-11-02 00:52:00,35.6,28.2,29.88,North,-999,0.0,3.1,74,0.00,,,-99.99,FreeWX-Wi 1.01,2013-11-02 05:52:00,
2013-11-02 01:02:00,36.0,28.8,29.88,North,-999,0.0,2.7,75,0.00,,,-99.99,FreeWX-Wi 1.01,2013-11-02 06:02:00,
2013-11-02 01:12:00,36.1,29.3,29.88,North,-999,0.0,2.7,76,0.00,,,-99.99,FreeWX-Wi 1.01,2013-11-02 06:12:00,
2013-11-02 01:22:00,36.5,30.0,29.88,North,-999,0.0,4.0,77,0.00,,,-99.99,FreeWX-Wi 1.01,2013-11-02 06:22:00,
2013-11-02 01:32:00,36.9,30.4,29.88,North,-999,0.0,3.6,77,0.00,,,-99.99,FreeWX-Wi 1.01,2013-11-02 06:32:00,
2013-11-02 01:42:00,36.9,30.7,29.88,North,-999,0.0,0.0,78,0.00,,,-99.99,FreeWX-Wi 1.01,2013-11-02 06:42:00,
2013-11-02 01:52:00,36.9,30.7,29.88,North,-999,0.0,3.6,78,0.00,,,-99.99,FreeWX-Wi 1.01,2013-11-02 06:52:00,
2013-11-02 02:02:00,37.0,31.1,29.91,North,-999,0.0,3.6,79,0.00,,,-99.99,FreeWX-Wi 1.01,2013-11-02 07:02:00,
2013-11-02 02:12:00,37.0,31.5,29.91,North,-999,0.0,3.1,80,0.00,,,-99.99,FreeWX-Wi 1.01,2013-11-02 07:12:00,
2013-11-02 02:22:00,37.2,31.6,29.91,North,-999,0.0,2.7,80,0.00,,,-99.99,FreeWX-Wi 1.01,2013-11-02 07:22:00,
2013-11-02 02:32:00,36.7,31.1,29.91,North,-999,0.0,3.1,80,0.00,,,-99.99,FreeWX-Wi 1.01,2013-11-02 07:32:00,
2013-11-02 02:42:00,36.1,30.6,29.91,North,-999,0.0,0.0,80,0.00,,,-99.99,FreeWX-Wi 1.01,2013-11-02 07:42:00,
2013-11-02 02:52:00,35.4,29.8,29.91,North,-999,0.0,2.2,80,0.00,,,-99.99,FreeWX-Wi 1.01,2013-11-02 07:52:00,
2013-11-02 03:02:00,34.9,29.3,29.91,North,-999,0.0,2.7,80,0.00,,,-99.99,FreeWX-Wi 1.01,2013-11-02 08:02:00,
2013-11-02 03:12:00,34.2,28.6,29.91,North,-999,0.0,0.0,80,0.00,,,-99.99,FreeWX-Wi 1.01,2013-11-02 08:12:00,
2013-11-02 03:22:00,33.6,28.0,29.91,North,-999,0.0,0.0,80,0.00,,,-99.99,FreeWX-Wi 1.01,2013-11-02 08:22:00,
2013-11-02 03:32:00,33.1,27.7,29.91,North,-999,0.0,0.0,80,0.00,,,-99.99,FreeWX-Wi 1.01,2013-11-02 08:32:00,
2013-11-02 03:42:00,32.5,27.1,29.94,North,-999,0.0,0.0,80,0.00,,,-99.99,FreeWX-Wi 1.01,2013-11-02 08:42:00,
2013-11-02 03:52:00,32.0,26.6,29.94,North,-999,0.0,0.0,80,0.00,,,-99.99,FreeWX-Wi 1.01,2013-11-02 08:52:00,
2013-11-02 04:02:00,31.5,26.1,29.94,North,-999,0.0,0.0,80,0.00,,,-99.99,FreeWX-Wi 1.01,2013-11-02 09:02:00,
2013-11-02 04:12:00,31.1,25.7,29.94,North,-999,0.0,0.0,80,0.00,,,-99.99,FreeWX-Wi 1.01,2013-11-02 09:12:00,
2013-11-02 04:22:00,30.9,25.5,29.94,North,-999,0.0,2.2,80,0.00,,,-99.99,FreeWX-Wi 1.01,2013-11-02 09:22:00,
2013-11-02 04:32:00,30.6,25.2,29.94,North,-999,0.0,2.2,80,0.00,,,-99.99,FreeWX-Wi 1.01,2013-11-02 09:32:00,
2013-11-02 04:42:00,30.2,25.2,29.94,North,-999,0.0,2.7,81,0.00,,,-99.99,FreeWX-Wi 1.01,2013-11-02 09:42:00,
2013-11-02 04:52:00,29.8,24.8,29.94,North,-999,0.0,2.7,81,0.00,,,-99.99,FreeWX-Wi 1.01,2013-11-02 09:52:00,
2013-11-02 05:02:00,29.8,24.8,29.94,North,-999,0.0,0.0,81,0.00,,,-99.99,FreeWX-Wi 1.01,2013-11-02 10:02:00,
2013-11-02 05:12:00,29.7,24.6,29.94,North,-999,0.0,0.0,81,0.00,,,-99.99,FreeWX-Wi 1.01,2013-11-02 10:12:00,
2013-11-02 05:22:00,29.5,24.4,29.94,North,-999,0.0,2.7,81,0.00,,,-99.99,FreeWX-Wi 1.01,2013-11-02 10:22:00,
2013-11-02 05:32:00,29.1,24.1,29.94,North,-999,0.0,2.7,81,0.00,,,-99.99,FreeWX-Wi 1.01,2013-11-02 10:32:00,
2013-11-02 05:42:00,28.9,23.9,29.97,North,-999,0.0,0.0,81,0.00,,,-99.99,FreeWX-Wi 1.01,2013-11-02 10:42:00,
2013-11-02 05:52:00,28.8,23.9,29.97,North,-999,0.0,0.0,82,0.00,,,-99.99,FreeWX-Wi 1.01,2013-11-02 10:52:00,
2013-11-02 06:02:00,28.4,23.5,29.97,North,-999,0.0,0.0,82,0.00,,,-99.99,FreeWX-Wi 1.01,2013-11-02 11:02:00,
2013-11-02 06:12:00,28.0,23.2,29.97,North,-999,0.0,3.6,82,0.00,,,-99.99,FreeWX-Wi 1.01,2013-11-02 11:12:00,
2013-11-02 06:22:00,28.0,23.5,29.97,North,-999,0.0,0.0,83,0.00,,,-99.99,FreeWX-Wi 1.01,2013-11-02 11:22:00,
2013-11-02 06:32:00,27.9,23.4,29.97,North,-999,0.0,0.0,83,0.00,,,-99.99,FreeWX-Wi 1.01,2013-11-02 11:32:00,
2013-11-02 06:42:00,27.9,23.4,29.97,North,-999,0.0,3.1,83,0.00,,,-99.99,FreeWX-Wi 1.01,2013-11-02 11:42:00,
2013-11-02 06:52:00,27.5,23.0,29.97,North,-999,0.0,0.0,83,0.00,,,-99.99,FreeWX-Wi 1.01,2013-11-02 11:52:00,
2013-11-02 07:02:00,27.3,23.2,30.00,North,-999,0.0,2.2,84,0.00,,,-99.99,FreeWX-Wi 1.01,2013-11-02 12:02:00,
2013-11-02 07:12:00,27.0,22.8,30.00,North,-999,0.0,0.0,84,0.00,,,-99.99,FreeWX-Wi 1.01,2013-11-02 12:12:00,
2013-11-02 07:22:00,27.1,23.0,30.00,North,-999,0.0,0.0,84,0.00,,,-99.99,FreeWX-Wi 1.01,2013-11-02 12:22:00,
2013-11-02 07:32:00,27.1,23.2,30.00,North,-999,0.0,0.0,85,0.00,,,-99.99,FreeWX-Wi 1.01,2013-11-02 12:32:00,
2013-11-02 07:42:00,27.0,23.0,30.00,North,-999,0.0,0.0,85,0.00,,,-99.99,FreeWX-Wi 1.01,2013-11-02 12:42:00,
2013-11-02 07:52:00,26.4,22.5,30.00,North,-999,0.0,0.0,85,0.00,,,-99.99,FreeWX-Wi 1.01,2013-11-02 12:52:00,
2013-11-02 08:02:00,26.1,22.1,30.00,North,-999,0.0,0.0,85,0.00,,,-99.99,FreeWX-Wi 1.01,2013-11-02 13:02:00,
2013-11-02 08:12:00,25.7,21.7,30.00,North,-999,0.0,0.0,85,0.00,,,-99.99,FreeWX-Wi 1.01,2013-11-02 13:12:00,
2013-11-02 08:22:00,25.7,22.1,30.00,North,-999,0.0,0.0,86,0.00,,,-99.99,FreeWX-Wi 1.01,2013-11-02 13:22:00,
2013-11-02 08:32:00,26.1,22.5,30.03,North,-999,0.0,2.2,86,0.00,,,-99.99,FreeWX-Wi 1.01,2013-11-02 13:32:00,
2013-11-02 08:42:00,26.4,23.0,30.03,North,-999,0.0,0.0,87,0.00,,,-99.99,FreeWX-Wi 1.01,2013-11-02 13:42:00,
2013-11-02 08:52:00,27.3,23.9,30.03,North,-999,0.0,4.0,87,0.00,,,-99.99,FreeWX-Wi 1.01,2013-11-02 13:52:00,
2013-11-02 09:02:00,29.1,26.2,30.03,North,-999,0.0,2.7,89,0.00,,,-99.99,FreeWX-Wi 1.01,2013-11-02 14:02:00,
2013-11-02 09:12:00,30.2,27.3,30.03,North,-999,0.0,3.6,89,0.00,,,-99.99,FreeWX-Wi 1.01,2013-11-02 14:12:00,
2013-11-02 09:22:00,32.2,29.7,30.03,North,-999,0.0,5.8,90,0.00,,,-99.99,FreeWX-Wi 1.01,2013-11-02 14:22:00,
2013-11-02 09:32:00,33.6,31.3,30.03,North,-999,0.0,2.7,91,0.00,,,-99.99,FreeWX-Wi 1.01,2013-11-02 14:32:00,
2013-11-02 09:42:00,34.9,32.7,30.03,North,-999,0.0,5.4,92,0.00,,,-99.99,FreeWX-Wi 1.01,2013-11-02 14:42:00,
2013-11-02 09:52:00,36.0,34.2,30.03,North,-999,0.0,4.5,93,0.00,,,-99.99,FreeWX-Wi 1.01,2013-11-02 14:52:00,
2013-11-02 10:02:00,36.7,34.9,30.03,West,272,1.0,6.3,93,0.00,,,-99.99,FreeWX-Wi 1.01,2013-11-02 15:02:00,
2013-11-02 10:12:00,37.9,36.3,30.03,West,273,1.0,3.6,94,0.00,,,-99.99,FreeWX-Wi 1.01,2013-11-02 15:12:00,
2013-11-02 10:22:00,38.8,37.6,30.03,WNW,288,1.0,4.0,95,0.00,,,-99.99,FreeWX-Wi 1.01,2013-11-02 15:22:00,
2013-11-02 10:32:00,39.9,38.7,30.06,WNW,292,1.0,3.6,95,0.00,,,-99.99,FreeWX-Wi 1.01,2013-11-02 15:32:00,
2013-11-02 10:42:00,40.8,39.6,30.06,WNW,302,1.0,4.0,95,0.00,,,-99.99,FreeWX-Wi 1.01,2013-11-02 15:42:00,
2013-11-02 10:52:00,41.9,40.1,30.06,NW,310,1.0,5.4,93,0.00,,,-99.99,FreeWX-Wi 1.01,2013-11-02 15:52:00,
2013-11-02 11:02:00,42.6,39.0,30.06,NW,324,1.0,5.4,87,0.00,,,-99.99,FreeWX-Wi 1.01,2013-11-02 16:02:00,
2013-11-02 11:12:00,43.5,37.0,30.06,NW,326,1.0,5.8,78,0.00,,,-99.99,FreeWX-Wi 1.01,2013-11-02 16:12:00,
2013-11-02 11:22:00,44.2,35.1,30.06,NNW,328,2.0,4.9,70,0.00,,,-99.99,FreeWX-Wi 1.01,2013-11-02 16:22:00,
2013-11-02 11:33:00,45.3,32.2,30.06,NNW,329,2.0,6.3,60,0.00,,,-99.99,FreeWX-Wi 1.01,2013-11-02 16:33:00,
2013-11-02 11:43:00,45.5,30.7,30.06,NNW,333,2.0,5.4,56,0.00,,,-99.99,FreeWX-Wi 1.01,2013-11-02 16:43:00,
2013-11-02 11:53:00,45.3,28.2,30.06,NNW,339,2.0,6.3,51,0.00,,,-99.99,FreeWX-Wi 1.01,2013-11-02 16:53:00,
2013-11-02 12:03:00,46.9,28.8,30.06,NNW,341,3.0,7.6,49,0.00,,,-99.99,FreeWX-Wi 1.01,2013-11-02 17:03:00,
2013-11-02 12:13:00,46.8,27.7,30.06,NNW,345,3.0,6.3,47,0.00,,,-99.99,FreeWX-Wi 1.01,2013-11-02 17:13:00,
2013-11-02 12:23:00,47.5,26.1,30.06,North,352,4.0,7.2,43,0.00,,,-99.99,FreeWX-Wi 1.01,2013-11-02 17:23:00,
2013-11-02 12:33:00,48.2,25.7,30.06,NNW,347,4.0,5.8,41,0.00,,,-99.99,FreeWX-Wi 1.01,2013-11-02 17:33:00,
2013-11-02 12:43:00,48.6,25.3,30.06,NNW,345,3.0,6.7,40,0.00,,,-99.99,FreeWX-Wi 1.01,2013-11-02 17:43:00,
2013-11-02 12:53:00,49.3,24.1,30.06,NNW,343,3.0,6.3,37,0.00,,,-99.99,FreeWX-Wi 1.01,2013-11-02 17:53:00,
2013-11-02 13:03:00,48.9,23.7,30.06,NNW,342,3.0,6.7,37,0.00,,,-99.99,FreeWX-Wi 1.01,2013-11-02 18:03:00,
2013-11-02 13:13:00,49.5,25.0,30.06,NNW,340,3.0,6.3,38,0.00,,,-99.99,FreeWX-Wi 1.01,2013-11-02 18:13:00,
2013-11-02 13:23:00,49.1,23.9,30.06,NNW,344,3.0,5.8,37,0.00,,,-99.99,FreeWX-Wi 1.01,2013-11-02 18:23:00,
2013-11-02 13:33:00,50.2,25.0,30.06,NNW,336,3.0,5.8,37,0.00,,,-99.99,FreeWX-Wi 1.01,2013-11-02 18:33:00,
2013-11-02 13:43:00,49.8,24.6,30.06,NNW,334,2.0,5.4,37,0.00,,,-99.99,FreeWX-Wi 1.01,2013-11-02 18:43:00,
2013-11-02 13:53:00,49.8,24.6,30.06,NNW,329,2.0,8.3,37,0.00,,,-99.99,FreeWX-Wi 1.01,2013-11-02 18:53:00,
2013-11-02 14:03:00,49.6,23.7,30.06,NW,321,2.0,5.4,36,0.00,,,-99.99,FreeWX-Wi 1.01,2013-11-02 19:03:00,
2013-11-02 14:13:00,50.2,24.3,30.06,NW,306,2.0,6.3,36,0.00,,,-99.99,FreeWX-Wi 1.01,2013-11-02 19:13:00,
2013-11-02 14:23:00,51.1,23.7,30.06,WNW,289,2.0,8.1,34,0.00,,,-99.99,FreeWX-Wi 1.01,2013-11-02 19:23:00,
2013-11-02 14:33:00,50.7,22.6,30.06,West,280,2.0,5.4,33,0.00,,,-99.99,FreeWX-Wi 1.01,2013-11-02 19:33:00,
2013-11-02 14:43:00,49.6,21.7,30.06,West,274,3.0,8.1,33,0.00,,,-99.99,FreeWX-Wi 1.01,2013-11-02 19:43:00,
2013-11-02 14:53:00,49.6,21.7,30.06,WSW,257,3.0,8.1,33,0.00,,,-99.99,FreeWX-Wi 1.01,2013-11-02 19:53:00,
2013-11-02 15:03:00,48.7,21.0,30.06,WSW,253,3.0,3.6,33,0.00,,,-99.99,FreeWX-Wi 1.01,2013-11-02 20:03:00,
2013-11-02 15:13:00,48.6,21.6,30.06,West,260,3.0,4.0,34,0.00,,,-99.99,FreeWX-Wi 1.01,2013-11-02 20:13:00,
2013-11-02 15:23:00,49.1,23.4,30.06,West,273,2.0,4.9,36,0.00,,,-99.99,FreeWX-Wi 1.01,2013-11-02 20:23:00,
2013-11-02 15:33:00,50.2,21.6,30.06,West,279,2.0,7.6,32,0.00,,,-99.99,FreeWX-Wi 1.01,2013-11-02 20:33:00,
2013-11-02 15:43:00,51.1,21.6,30.06,WNW,282,2.0,7.2,31,0.00,,,-99.99,FreeWX-Wi 1.01,2013-11-02 20:43:00,
2013-11-02 15:53:00,51.1,22.3,30.06,WNW,285,2.0,5.8,32,0.00,,,-99.99,FreeWX-Wi 1.01,2013-11-02 20:53:00,
2013-11-02 16:03:00,50.9,21.4,30.06,WNW,288,2.0,5.8,31,0.00,,,-99.99,FreeWX-Wi 1.01,2013-11-02 21:03:00,
2013-11-02 16:13:00,50.4,20.8,30.06,West,268,2.0,5.4,31,0.00,,,-99.99,FreeWX-Wi 1.01,2013-11-02 21:13:00,
2013-11-02 16:23:00,50.2,20.7,30.06,West,259,2.0,5.4,31,0.00,,,-99.99,FreeWX-Wi 1.01,2013-11-02 21:23:00,
2013-11-02 16:33:00,49.5,21.6,30.06,West,261,2.0,4.0,33,0.00,,,-99.99,FreeWX-Wi 1.01,2013-11-02 21:33:00,
2013-11-02 16:43:00,49.1,21.9,30.06,West,262,2.0,0.0,34,0.00,,,-99.99,FreeWX-Wi 1.01,2013-11-02 21:43:00,
2013-11-02 16:53:00,49.1,22.6,30.06,West,269,1.0,3.1,35,0.00,,,-99.99,FreeWX-Wi 1.01,2013-11-02 21:53:00,
2013-11-02 17:03:00,48.7,21.6,30.06,WNW,284,1.0,0.0,34,0.00,,,-99.99,FreeWX-Wi 1.01,2013-11-02 22:03:00,
2013-11-02 17:13:00,48.0,21.7,30.06,North,-999,0.0,2.2,35,0.00,,,-99.99,FreeWX-Wi 1.01,2013-11-02 22:13:00,
2013-11-02 17:23:00,46.8,21.2,30.06,North,-999,0.0,0.0,36,0.00,,,-99.99,FreeWX-Wi 1.01,2013-11-02 22:23:00,
2013-11-02 17:33:00,45.7,20.8,30.06,North,-999,0.0,0.0,37,0.00,,,-99.99,FreeWX-Wi 1.01,2013-11-02 22:33:00,
2013-11-02 17:43:00,44.2,20.3,30.06,North,-999,0.0,0.0,38,0.00,,,-99.99,FreeWX-Wi 1.01,2013-11-02 22:43:00,
2013-11-02 17:53:00,43.3,19.4,30.06,North,-999,0.0,0.0,38,0.00,,,-99.99,FreeWX-Wi 1.01,2013-11-02 22:53:00,
2013-11-02 18:03:00,42.4,19.2,30.06,North,-999,0.0,0.0,39,0.00,,,-99.99,FreeWX-Wi 1.01,2013-11-02 23:03:00,
2013-11-02 18:13:00,41.5,19.0,-100.00,North,-999,0.0,0.0,40,0.00,,,-99.99,FreeWX-Wi 1.01,2013-11-02 23:13:00,
2013-11-02 18:23:00,40.6,18.9,30.06,North,-999,0.0,0.0,41,0.00,,,-99.99,FreeWX-Wi 1.01,2013-11-02 23:23:00,
2013-11-02 18:33:00,39.7,18.5,30.06,North,-999,0.0,0.0,42,0.00,,,-99.99,FreeWX-Wi 1.01,2013-11-02 23:33:00,
2013-11-02 18:43:00,38.8,18.9,30.06,North,-999,0.0,0.0,44,0.00,,,-99.99,FreeWX-Wi 1.01,2013-11-02 23:43:00,
2013-11-02 18:53:00,38.5,19.0,30.06,North,-999,0.0,0.0,45,0.00,,,-99.99,FreeWX-Wi 1.01,2013-11-02 23:53:00,
2013-11-02 19:03:00,37.9,19.0,30.06,North,-999,0.0,0.0,46,0.00,,,-99.99,FreeWX-Wi 1.01,2013-11-03 00:03:00,
2013-11-02 19:13:00,37.2,19.4,30.06,North,-999,0.0,0.0,48,0.00,,,-99.99,FreeWX-Wi 1.01,2013-11-03 00:13:00,
2013-11-02 19:23:00,36.7,19.4,30.06,North,-999,0.0,0.0,49,0.00,,,-99.99,FreeWX-Wi 1.01,2013-11-03 00:23:00,
2013-11-02 19:33:00,36.1,19.4,30.06,North,-999,0.0,0.0,50,0.00,,,-99.99,FreeWX-Wi 1.01,2013-11-03 00:33:00,
2013-11-02 19:43:00,35.8,19.4,30.06,North,-999,0.0,0.0,51,0.00,,,-99.99,FreeWX-Wi 1.01,2013-11-03 00:43:00,
2013-11-02 19:53:00,35.4,19.6,30.06,North,-999,0.0,0.0,52,0.00,,,-99.99,FreeWX-Wi 1.01,2013-11-03 00:53:00,
2013-11-02 20:03:00,35.1,19.2,30.06,North,-999,0.0,0.0,52,0.00,,,-99.99,FreeWX-Wi 1.01,2013-11-03 01:03:00,
2013-11-02 20:13:00,34.9,19.9,30.06,North,-999,0.0,0.0,54,0.00,,,-99.99,FreeWX-Wi 1.01,2013-11-03 01:13:00,
2013-11-02 20:23:00,34.5,20.1,30.06,North,-999,0.0,0.0,55,0.00,,,-99.99,FreeWX-Wi 1.01,2013-11-03 01:23:00,
2013-11-02 20:33:00,34.3,19.9,30.06,North,-999,0.0,0.0,55,0.00,,,-99.99,FreeWX-Wi 1.01,2013-11-03 01:33:00,
2013-11-02 20:43:00,34.3,20.3,30.06,North,-999,0.0,0.0,56,0.00,,,-99.99,FreeWX-Wi 1.01,2013-11-03 01:43:00,
2013-11-02 20:53:00,34.2,20.1,30.06,North,-999,0.0,0.0,56,0.00,,,-99.99,FreeWX-Wi 1.01,2013-11-03 01:53:00,
2013-11-02 21:03:00,34.0,20.3,30.06,North,-999,0.0,0.0,57,0.00,,,-99.99,FreeWX-Wi 1.01,2013-11-03 02:03:00,
2013-11-02 21:13:00,34.0,20.8,30.06,North,-999,0.0,0.0,58,0.00,,,-99.99,FreeWX-Wi 1.01,2013-11-03 02:13:00,
2013-11-02 21:23:00,33.8,20.7,30.06,North,-999,0.0,0.0,58,0.00,,,-99.99,FreeWX-Wi 1.01,2013-11-03 02:23:00,
2013-11-02 21:33:00,34.2,22.5,30.06,North,-999,0.0,0.0,62,0.00,,,-99.99,FreeWX-Wi 1.01,2013-11-03 02:33:00,
2013-11-02 21:43:00,34.5,23.9,30.06,North,-999,0.0,0.0,65,0.00,,,-99.99,FreeWX-Wi 1.01,2013-11-03 02:43:00,
2013-11-02 21:53:00,34.7,24.1,30.06,North,-999,0.0,0.0,65,0.00,,,-99.99,FreeWX-Wi 1.01,2013-11-03 02:53:00,
2013-11-02 22:03:00,34.5,23.9,30.06,North,-999,0.0,0.0,65,0.00,,,-99.99,FreeWX-Wi 1.01,2013-11-03 03:03:00,
2013-11-02 22:14:00,34.3,23.4,30.06,North,-999,0.0,0.0,64,0.00,,,-99.99,FreeWX-Wi 1.01,2013-11-03 03:14:00,
2013-11-02 22:24:00,33.8,22.6,30.06,North,-999,0.0,0.0,63,0.00,,,-99.99,FreeWX-Wi 1.01,2013-11-03 03:24:00,
2013-11-02 22:34:00,33.6,22.5,30.06,North,-999,0.0,0.0,63,0.00,,,-99.99,FreeWX-Wi 1.01,2013-11-03 03:34:00,
2013-11-02 22:44:00,34.2,24.1,30.06,North,-999,0.0,0.0,66,0.00,,,-99.99,FreeWX-Wi 1.01,2013-11-03 03:44:00,
2013-11-02 22:54:00,34.3,24.6,30.06,North,-999,0.0,0.0,67,0.00,,,-99.99,FreeWX-Wi 1.01,2013-11-03 03:54:00,
2013-11-02 23:04:00,34.5,25.0,30.06,North,-999,0.0,0.0,68,0.00,,,-99.99,FreeWX-Wi 1.01,2013-11-03 04:04:00,
2013-11-02 23:14:00,34.5,24.6,30.06,North,-999,0.0,3.1,67,0.00,,,-99.99,FreeWX-Wi 1.01,2013-11-03 04:14:00,
2013-11-02 23:24:00,34.5,25.0,30.06,North,-999,0.0,0.0,68,0.00,,,-99.99,FreeWX-Wi 1.01,2013-11-03 04:24:00,
2013-11-02 23:34:00,35.2,26.8,30.06,North,-999,0.0,0.0,71,0.00,,,-99.99,FreeWX-Wi 1.01,2013-11-03 04:34:00,
2013-11-02 23:44:00,35.6,27.1,30.06,North,-999,0.0,0.0,71,0.00,,,-99.99,FreeWX-Wi 1.01,2013-11-03 04:44:00,
2013-11-02 23:54:00,35.4,26.6,30.06,North,-999,0.0,0.0,70,0.00,,,-99.99,FreeWX-Wi 1.01,2013-11-03 04:54:00,